createdAt,value
2022-08-30T00:02:25.386Z,101437.91
2022-08-30T00:04:55.687Z,101436.16
2022-08-30T00:07:27.634Z,101441.63
2022-08-30T00:09:58.033Z,101446.06
2022-08-30T00:12:28.485Z,101443.34
2022-08-30T00:14:58.542Z,101448.63
2022-08-30T00:17:28.634Z,101455.78
2022-08-30T00:19:59.833Z,101457.66
2022-08-30T00:22:33.340Z,101453.22
2022-08-30T00:25:03.760Z,101456.78
2022-08-30T00:27:34.371Z,101460.34
2022-08-30T00:30:06.280Z,101456.72
2022-08-30T00:32:36.730Z,101461.09
2022-08-30T00:35:09.440Z,101467.28
2022-08-30T00:37:42.471Z,101468.88
2022-08-30T00:40:16.180Z,101473.31
2022-08-30T00:42:50.691Z,101471.47
2022-08-30T00:45:24.591Z,101483.94
2022-08-30T00:47:54.909Z,101473.28
2022-08-30T00:50:29.710Z,101479.56
2022-08-30T00:53:03.564Z,101486.69
2022-08-30T00:55:34.272Z,101481.31
2022-08-30T00:58:12.409Z,101487.50
2022-08-30T01:00:42.912Z,101475.91
2022-08-30T01:03:13.277Z,101472.34
2022-08-30T01:05:44.681Z,101474.09
2022-08-30T01:08:16.831Z,101482.13
2022-08-30T01:10:47.460Z,101475.69
2022-08-30T01:13:18.088Z,101481.81
2022-08-30T01:15:48.857Z,101482.81
2022-08-30T01:18:22.285Z,101483.69
2022-08-30T01:21:03.058Z,101490.88
2022-08-30T01:23:36.431Z,101489.16
2022-08-30T01:26:09.075Z,101493.69
2022-08-30T01:28:41.015Z,101483.84
2022-08-30T01:31:11.473Z,101484.97
2022-08-30T01:33:41.573Z,101483.13
2022-08-30T01:36:14.734Z,101484.09
2022-08-30T01:38:50.134Z,101489.56
2022-08-30T01:41:22.363Z,101481.63
2022-08-30T01:43:55.075Z,101483.44
2022-08-30T01:46:27.991Z,101490.69
2022-08-30T01:49:00.175Z,101488.94
2022-08-30T01:51:31.563Z,101492.69
2022-08-30T01:54:03.715Z,101494.44
2022-08-30T01:56:33.903Z,101496.13
2022-08-30T01:59:04.705Z,101493.47
2022-08-30T02:01:37.353Z,101489.03
2022-08-30T02:04:09.800Z,101492.50
2022-08-30T02:06:40.883Z,101495.03
2022-08-30T02:09:13.039Z,101497.75
2022-08-30T02:11:43.803Z,101489.63
2022-08-30T02:14:14.205Z,101502.13
2022-08-30T02:16:44.507Z,101500.34
2022-08-30T02:19:14.806Z,101502.06
2022-08-30T02:21:45.393Z,101497.81
2022-08-30T02:24:17.103Z,101502.22
2022-08-30T02:26:47.486Z,101498.63
2022-08-30T02:29:17.683Z,101496.00
2022-08-30T02:31:48.085Z,101505.78
2022-08-30T02:34:18.833Z,101502.13
2022-08-30T02:36:49.173Z,101497.66
2022-08-30T02:39:20.635Z,101499.53
2022-08-30T02:41:51.274Z,101503.16
2022-08-30T02:44:21.403Z,101509.44
2022-08-30T02:46:51.513Z,101505.94
2022-08-30T02:49:37.486Z,101512.31
2022-08-30T02:52:08.396Z,101511.41
2022-08-30T02:54:40.395Z,101513.09
2022-08-30T02:57:19.924Z,101512.31
2022-08-30T02:59:50.626Z,101518.50
2022-08-30T03:02:22.581Z,101516.75
2022-08-30T03:04:53.565Z,101518.56
2022-08-30T03:07:23.655Z,101516.81
2022-08-30T03:09:55.437Z,101517.63
2022-08-30T03:12:25.903Z,101523.00
2022-08-30T03:14:56.631Z,101520.16
2022-08-30T03:17:26.959Z,101526.56
2022-08-30T03:19:57.405Z,101531.19
2022-08-30T03:22:27.633Z,101522.31
2022-08-30T03:25:00.405Z,101525.09
2022-08-30T03:27:31.594Z,101520.63
2022-08-30T03:30:01.863Z,101514.56
2022-08-30T03:32:32.065Z,101519.97
2022-08-30T03:35:02.463Z,101516.56
2022-08-30T03:37:32.553Z,101514.88
2022-08-30T03:40:05.172Z,101521.25
2022-08-30T03:42:37.322Z,101528.59
2022-08-30T03:45:09.645Z,101522.28
2022-08-30T03:47:41.071Z,101529.47
2022-08-30T03:50:13.425Z,101528.81
2022-08-30T03:52:45.234Z,101489.22
2022-08-30T03:55:16.813Z,101531.56
2022-08-30T03:57:47.153Z,101533.41
2022-08-30T04:00:18.317Z,101537.00
2022-08-30T04:02:48.233Z,101530.56
2022-08-30T04:05:18.714Z,101544.91
2022-08-30T04:07:49.320Z,101543.06
2022-08-30T04:10:22.223Z,101552.81
2022-08-30T04:12:53.135Z,101555.63
2022-08-30T04:15:23.315Z,101555.50
2022-08-30T04:17:55.264Z,101560.88
2022-08-30T04:20:25.604Z,101566.06
2022-08-30T04:22:55.885Z,101564.44
2022-08-30T04:25:27.413Z,101561.75
2022-08-30T04:27:57.938Z,101568.84
2022-08-30T04:30:28.046Z,101567.88
2022-08-30T04:32:59.103Z,101575.94
2022-08-30T04:35:29.405Z,101571.44
2022-08-30T04:38:00.176Z,101564.22
2022-08-30T04:40:31.702Z,101566.81
2022-08-30T04:43:02.252Z,101564.13
2022-08-30T04:45:32.661Z,101564.88
2022-08-30T04:48:03.454Z,101566.41
2022-08-30T04:50:33.933Z,101561.84
2022-08-30T04:53:15.710Z,101568.09
2022-08-30T04:55:47.433Z,101573.41
2022-08-30T04:58:18.464Z,101577.78
2022-08-30T05:00:48.611Z,101577.88
2022-08-30T05:03:19.113Z,101588.59
2022-08-30T05:05:51.013Z,101585.88
2022-08-30T05:08:24.981Z,101585.09
2022-08-30T05:10:56.603Z,101594.88
2022-08-30T05:13:35.708Z,101592.16
2022-08-30T05:16:10.230Z,101597.41
2022-08-30T05:18:40.673Z,101599.41
2022-08-30T05:21:12.773Z,101604.56
2022-08-30T05:23:43.883Z,101604.56
2022-08-30T05:26:20.535Z,101603.59
2022-08-30T05:28:50.903Z,101606.09
2022-08-30T05:31:23.053Z,101606.09
2022-08-30T05:33:55.332Z,101607.03
2022-08-30T05:36:28.892Z,101611.34
2022-08-30T05:39:00.763Z,101616.75
2022-08-30T05:41:32.983Z,101613.91
2022-08-30T05:44:05.879Z,101599.59
2022-08-30T05:46:36.299Z,101612.91
2022-08-30T05:49:09.136Z,101611.19
2022-08-30T05:51:41.127Z,101613.84
2022-08-30T05:54:15.348Z,101609.31
2022-08-30T05:56:48.388Z,101618.19
2022-08-30T05:59:18.889Z,101607.97
2022-08-30T06:01:49.938Z,101609.72
2022-08-30T06:04:20.377Z,101611.34
2022-08-30T06:06:50.458Z,101607.63
2022-08-30T06:09:21.314Z,101620.22
2022-08-30T06:11:53.173Z,101608.16
2022-08-30T06:14:23.484Z,101618.72
2022-08-30T06:16:54.322Z,101621.38
2022-08-30T06:19:24.401Z,101620.97
2022-08-30T06:21:55.075Z,101611.81
2022-08-30T06:24:41.079Z,101614.28
2022-08-30T06:27:17.394Z,101615.78
2022-08-30T06:29:48.093Z,101620.66
2022-08-30T06:32:18.465Z,101618.00
2022-08-30T06:34:48.630Z,101622.81
2022-08-30T06:37:21.972Z,101628.16
2022-08-30T06:40:00.888Z,101628.19
2022-08-30T06:42:34.382Z,101630.00
2022-08-30T06:45:10.958Z,101633.53
2022-08-30T06:47:42.246Z,101636.25
2022-08-30T06:50:17.562Z,101630.84
2022-08-30T06:52:48.673Z,101627.91
2022-08-30T06:55:19.655Z,101630.00
2022-08-30T06:57:51.456Z,101632.66
2022-08-30T07:00:21.908Z,101645.94
2022-08-30T07:02:52.300Z,101625.34
2022-08-30T07:05:24.026Z,101638.69
2022-08-30T07:07:54.713Z,101635.84
2022-08-30T07:10:25.072Z,101639.13
2022-08-30T07:12:58.095Z,101649.81
2022-08-30T07:15:32.989Z,101657.69
2022-08-30T07:18:26.435Z,101653.41
2022-08-30T07:20:56.672Z,101658.41
2022-08-30T07:23:27.176Z,101660.22
2022-08-30T07:25:57.144Z,101659.34
2022-08-30T07:28:28.959Z,101661.38
2022-08-30T07:30:59.375Z,101668.13
2022-08-30T07:33:30.163Z,101669.16
2022-08-30T07:36:01.450Z,101678.38
2022-08-30T07:38:32.843Z,101676.97
2022-08-30T07:41:03.877Z,101669.91
2022-08-30T07:43:37.453Z,101682.19
2022-08-30T07:46:10.279Z,101679.63
2022-08-30T07:48:45.063Z,101675.13
2022-08-30T07:51:17.153Z,101677.66
2022-08-30T07:53:48.386Z,101685.47
2022-08-30T07:56:18.745Z,101688.16
2022-08-30T07:58:53.945Z,101683.69
2022-08-30T08:01:26.438Z,101684.53
2022-08-30T08:03:59.358Z,101682.81
2022-08-30T08:06:34.821Z,101698.13
2022-08-30T08:09:05.836Z,101691.13
2022-08-30T08:11:38.162Z,101693.53
2022-08-30T08:14:11.255Z,101699.69
2022-08-30T08:16:45.033Z,101698.81
2022-08-30T08:19:15.981Z,101703.19
2022-08-30T08:21:46.284Z,101703.03
2022-08-30T08:24:17.455Z,101712.78
2022-08-30T08:26:48.695Z,101715.31
2022-08-30T08:29:21.541Z,101719.31
2022-08-30T08:31:53.203Z,101718.25
2022-08-30T08:34:25.086Z,101720.72
2022-08-30T08:36:57.309Z,101727.91
2022-08-30T08:39:27.475Z,101724.25
2022-08-30T08:42:06.725Z,101732.47
2022-08-30T08:44:54.855Z,101727.34
2022-08-30T08:47:34.577Z,101735.41
2022-08-30T08:50:09.746Z,101745.16
2022-08-30T08:53:13.272Z,101748.09
2022-08-30T08:55:48.811Z,101752.22
2022-08-30T08:58:26.323Z,101758.22
2022-08-30T09:01:05.505Z,101758.72
2022-08-30T09:03:37.005Z,101756.00
2022-08-30T09:06:26.375Z,101754.38
2022-08-30T09:08:57.758Z,101765.66
2022-08-30T09:11:57.284Z,101763.81
2022-08-30T09:14:35.656Z,101768.78
2022-08-30T09:17:12.395Z,101768.03
2022-08-30T09:19:45.699Z,101765.59
2022-08-30T09:22:27.218Z,101773.06
2022-08-30T09:25:02.936Z,101770.53
2022-08-30T09:27:38.119Z,101771.38
2022-08-30T09:30:14.856Z,101771.53
2022-08-30T09:32:54.349Z,101764.44
2022-08-30T09:35:27.198Z,101766.16
2022-08-30T09:38:06.192Z,101767.16
2022-08-30T09:40:45.702Z,101768.97
2022-08-30T09:43:25.701Z,101764.34
2022-08-30T09:46:10.931Z,101760.03
2022-08-30T09:48:49.815Z,101766.06
2022-08-30T09:51:53.016Z,101767.75
2022-08-30T09:54:31.123Z,101771.13
2022-08-30T09:57:12.707Z,101767.50
2022-08-30T09:59:53.425Z,101766.03
2022-08-30T10:02:45.395Z,101763.03
2022-08-30T10:05:27.424Z,101774.38
2022-08-30T10:08:12.650Z,101774.16
2022-08-30T10:10:50.775Z,101781.53
2022-08-30T10:13:54.610Z,101780.88
2022-08-30T10:16:37.555Z,101778.09
2022-08-30T10:19:22.516Z,101788.78
2022-08-30T10:22:00.742Z,101779.63
2022-08-30T10:24:37.199Z,101780.41
2022-08-30T10:27:12.643Z,101791.69
2022-08-30T10:29:48.955Z,101789.56
2022-08-30T10:32:26.816Z,101787.81
2022-08-30T10:35:03.545Z,101792.25
2022-08-30T10:37:41.875Z,101790.06
2022-08-30T10:40:37.938Z,101789.41
2022-08-30T10:43:16.827Z,101786.00
2022-08-30T10:45:50.914Z,101786.66
2022-08-30T10:48:26.785Z,101786.19
2022-08-30T10:51:04.656Z,101791.00
2022-08-30T10:53:45.671Z,101793.88
2022-08-30T10:56:20.893Z,101787.06
2022-08-30T10:58:52.620Z,101793.66
2022-08-30T11:01:38.703Z,101788.50
2022-08-30T11:04:45.386Z,101786.50
2022-08-30T11:07:28.911Z,101785.16
2022-08-30T11:10:24.135Z,101781.94
2022-08-30T11:13:01.550Z,101783.78
2022-08-30T11:15:36.845Z,101737.34
2022-08-30T11:18:13.713Z,101777.03
2022-08-30T11:20:49.372Z,101783.47
2022-08-30T11:23:32.616Z,101782.88
2022-08-30T11:26:13.994Z,101786.50
2022-08-30T11:29:30.943Z,101790.06
2022-08-30T11:32:25.484Z,101786.69
2022-08-30T11:35:01.436Z,101796.09
2022-08-30T11:37:38.980Z,101798.69
2022-08-30T11:40:13.349Z,101798.59
2022-08-30T11:42:50.560Z,101802.97
2022-08-30T11:45:55.369Z,101806.47
2022-08-30T11:48:53.586Z,101799.72
2022-08-30T11:52:23.831Z,101798.50
2022-08-30T11:55:01.682Z,101792.00
2022-08-30T11:57:43.734Z,101792.00
2022-08-30T12:00:34.391Z,101784.34
2022-08-30T12:03:09.983Z,101790.94
2022-08-30T12:05:57.526Z,101792.16
2022-08-30T12:08:49.044Z,101792.13
2022-08-30T12:12:04.696Z,101801.72
2022-08-30T12:15:01.536Z,101802.41
2022-08-30T12:18:14.750Z,101807.13
2022-08-30T12:20:50.293Z,101798.19
2022-08-30T12:23:32.743Z,101797.91
2022-08-30T12:26:20.584Z,101791.38
2022-08-30T12:28:55.994Z,101799.41
2022-08-30T12:31:28.694Z,101798.78
2022-08-30T12:34:04.355Z,101803.03
2022-08-30T12:36:39.910Z,101812.53
2022-08-30T12:39:13.623Z,101803.09
2022-08-30T12:41:45.521Z,101799.78
2022-08-30T12:44:19.266Z,101800.00
2022-08-30T12:46:58.993Z,101800.84
2022-08-30T12:49:34.742Z,101795.72
2022-08-30T12:52:20.485Z,101803.72
2022-08-30T12:54:50.964Z,101799.47
2022-08-30T12:57:40.042Z,101799.31
2022-08-30T13:00:13.861Z,101807.41
2022-08-30T13:02:52.244Z,101801.00
2022-08-30T13:05:53.102Z,101803.69
2022-08-30T13:08:37.165Z,101795.47
2022-08-30T13:11:11.264Z,101801.72
2022-08-30T13:13:44.421Z,101795.44
2022-08-30T13:16:29.608Z,101796.28
2022-08-30T13:19:25.444Z,101796.34
2022-08-30T13:22:00.123Z,101794.00
2022-08-30T13:24:31.025Z,101801.47
2022-08-30T13:27:11.605Z,101799.91
2022-08-30T13:29:42.116Z,101796.28
2022-08-30T13:32:14.163Z,101796.19
2022-08-30T13:34:46.228Z,101796.00
2022-08-30T13:40:17.993Z,101797.19
2022-08-30T13:42:48.385Z,101784.88
2022-08-30T13:48:14.474Z,101787.97
2022-08-30T13:50:48.690Z,101786.09
2022-08-30T13:53:52.096Z,101802.00
2022-08-30T13:56:14.219Z,101791.34
2022-08-30T13:58:44.972Z,101795.06
2022-08-30T14:01:18.649Z,101790.56
2022-08-30T14:07:11.916Z,101795.66
2022-08-30T14:09:32.784Z,101790.16
2022-08-30T14:12:03.324Z,101787.19
2022-08-30T14:14:42.682Z,101792.94
2022-08-30T14:17:17.086Z,101803.22
2022-08-30T14:19:48.315Z,101797.22
2022-08-30T14:22:21.137Z,101798.16
2022-08-30T14:24:54.495Z,101801.97
2022-08-30T14:27:31.905Z,101802.41
2022-08-30T14:30:02.155Z,101803.19
2022-08-30T14:32:32.801Z,101806.22
2022-08-30T14:35:02.952Z,101808.34
2022-08-30T14:37:34.593Z,101815.47
2022-08-30T14:40:06.972Z,101818.06
2022-08-30T14:42:37.294Z,101807.72
2022-08-30T14:45:08.462Z,101807.47
2022-08-30T14:47:39.055Z,101807.31
2022-08-30T14:50:10.819Z,101810.69
2022-08-30T14:52:41.258Z,101805.50
2022-08-30T14:55:17.383Z,101813.72
2022-08-30T14:57:48.905Z,101815.41
2022-08-30T15:00:18.724Z,101803.63
2022-08-30T15:02:51.384Z,101811.72
2022-08-30T15:05:21.717Z,101813.66
2022-08-30T15:07:53.285Z,101813.16
2022-08-30T15:10:25.205Z,101814.25
2022-08-30T15:12:55.694Z,101807.66
2022-08-30T15:15:26.156Z,101813.50
2022-08-30T15:17:56.643Z,101815.31
2022-08-30T15:20:27.796Z,101808.84
2022-08-30T15:22:58.234Z,101809.78
2022-08-30T15:25:29.945Z,101816.84
2022-08-30T15:28:00.295Z,101815.03
2022-08-30T15:30:31.033Z,101805.56
2022-08-30T15:33:01.474Z,101812.84
2022-08-30T15:35:31.490Z,101804.25
2022-08-30T15:38:01.766Z,101810.72
2022-08-30T15:40:34.502Z,101811.53
2022-08-30T15:43:05.745Z,101804.75
2022-08-30T15:45:36.352Z,101803.09
2022-08-30T15:48:06.786Z,101803.66
2022-08-30T15:50:37.348Z,101804.06
2022-08-30T15:53:08.292Z,101799.72
2022-08-30T15:55:40.139Z,101802.47
2022-08-30T15:58:10.263Z,101801.66
2022-08-30T16:00:44.891Z,101801.53
2022-08-30T16:03:15.546Z,101806.16
2022-08-30T16:05:46.264Z,101803.41
2022-08-30T16:08:16.334Z,101803.00
2022-08-30T16:10:52.066Z,101801.31
2022-08-30T16:13:22.319Z,101792.75
2022-08-30T16:15:53.630Z,101788.63
2022-08-30T16:18:23.783Z,101791.13
2022-08-30T16:21:05.455Z,101797.78
2022-08-30T16:23:37.300Z,101796.28
2022-08-30T16:26:18.754Z,101794.88
2022-08-30T16:28:50.356Z,101793.44
2022-08-30T16:31:24.975Z,101796.34
2022-08-30T16:34:04.196Z,101800.03
2022-08-30T16:36:41.266Z,101797.44
2022-08-30T16:39:13.071Z,101800.13
2022-08-30T16:42:04.674Z,101796.63
2022-08-30T16:44:37.820Z,101797.63
2022-08-30T16:47:19.257Z,101798.97
2022-08-30T16:49:54.116Z,101796.22
2022-08-30T16:52:26.824Z,101801.97
2022-08-30T16:55:16.513Z,101811.09
2022-08-30T17:01:20.522Z,101802.63
2022-08-30T17:03:54.546Z,101810.69
2022-08-30T17:06:29.376Z,101811.47
2022-08-30T17:09:07.915Z,101808.75
2022-08-30T17:11:46.266Z,101820.44
2022-08-30T17:14:27.846Z,101813.13
2022-08-30T17:17:04.584Z,101814.16
2022-08-30T17:19:45.408Z,101822.34
2022-08-30T17:22:21.790Z,101820.63
2022-08-30T17:24:59.302Z,101827.97
2022-08-30T17:27:36.520Z,101835.34
2022-08-30T17:30:27.366Z,101825.72
2022-08-30T17:33:04.935Z,101824.00
2022-08-30T17:35:43.932Z,101825.09
2022-08-30T17:38:20.972Z,101828.88
2022-08-30T17:41:08.517Z,101823.38
2022-08-30T17:43:45.206Z,101835.16
2022-08-30T17:46:25.378Z,101840.78
2022-08-30T17:49:10.444Z,101834.63
2022-08-30T17:52:04.309Z,101840.16
2022-08-30T17:54:40.398Z,101851.78
2022-08-30T17:57:22.955Z,101853.69
2022-08-30T18:03:00.591Z,101851.19
2022-08-30T18:05:44.693Z,101859.25
2022-08-30T18:08:18.756Z,101867.38
2022-08-30T18:10:54.993Z,101861.38
2022-08-30T18:13:41.954Z,101861.53
2022-08-30T18:16:12.382Z,101867.06
2022-08-30T18:21:51.959Z,101870.88
2022-08-30T18:24:28.714Z,101877.16
2022-08-30T18:26:59.626Z,101878.13
2022-08-30T18:29:37.190Z,101880.78
2022-08-30T18:32:09.339Z,101881.94
2022-08-30T18:37:32.441Z,101889.25
2022-08-30T18:40:21.564Z,101892.88
2022-08-30T18:43:00.436Z,101886.72
2022-08-30T18:48:29.653Z,101885.25
2022-08-30T18:51:05.277Z,101877.28
2022-08-30T18:56:33.262Z,101882.88
2022-08-30T18:59:09.495Z,101880.28
2022-08-30T19:01:52.757Z,101882.06
2022-08-30T19:07:20.365Z,101887.56
2022-08-30T19:13:02.950Z,101892.06
2022-08-30T19:26:06.796Z,101888.50
2022-08-30T19:28:54.784Z,101884.00
2022-08-30T19:34:20.934Z,101887.56
2022-08-30T19:36:52.494Z,101892.91
2022-08-30T19:39:23.206Z,101883.09
2022-08-30T19:41:53.894Z,101889.31
2022-08-30T19:44:28.060Z,101886.63
2022-08-30T19:47:00.531Z,101891.91
2022-08-30T19:49:35.804Z,101892.81
2022-08-30T19:52:09.282Z,101895.53
2022-08-30T19:57:47.366Z,101895.59
2022-08-30T20:00:21.105Z,101892.09
2022-08-30T20:02:52.141Z,101900.13
2022-08-30T20:05:23.093Z,101901.09
2022-08-30T20:07:53.957Z,101893.13
2022-08-30T20:10:28.848Z,101903.81
2022-08-30T20:12:59.477Z,101900.28
2022-08-30T20:15:31.486Z,101897.69
2022-08-30T20:18:05.488Z,101900.38
2022-08-30T20:20:36.930Z,101898.66
2022-08-30T20:23:08.126Z,101901.34
2022-08-30T20:24:26.994Z,101862.75
2022-08-30T20:25:39.421Z,101899.59
2022-08-30T20:28:10.077Z,101895.25
2022-08-30T20:30:42.046Z,101905.09
2022-08-30T20:33:18.706Z,101901.56
2022-08-30T20:35:50.446Z,101900.75
2022-08-30T20:38:22.215Z,101902.56
2022-08-30T20:40:54.343Z,101900.78
2022-08-30T20:43:26.767Z,101907.03
2022-08-30T20:45:58.826Z,101913.31
2022-08-30T20:48:29.065Z,101911.56
2022-08-30T20:50:59.685Z,101916.00
2022-08-30T20:53:29.935Z,101906.16
2022-08-30T20:56:00.282Z,101905.19
2022-08-30T20:58:31.224Z,101901.59
2022-08-30T21:01:03.206Z,101907.81
2022-08-30T21:03:33.425Z,101906.81
2022-08-30T21:06:03.797Z,101902.31
2022-08-30T21:08:34.136Z,101903.16
2022-08-30T21:11:04.535Z,101898.72
2022-08-30T21:13:34.658Z,101897.81
2022-08-30T21:16:07.581Z,101893.31
2022-08-30T21:18:39.375Z,101905.75
2022-08-30T21:21:14.658Z,101900.44
2022-08-30T21:23:45.317Z,101898.66
2022-08-30T21:26:16.025Z,101903.00
2022-08-30T21:28:47.995Z,101906.50
2022-08-30T21:31:22.492Z,101906.53
2022-08-30T21:33:54.472Z,101900.38
2022-08-30T21:36:44.735Z,101905.66
2022-08-30T21:39:21.285Z,101894.94
2022-08-30T21:41:54.786Z,101890.47
2022-08-30T21:44:27.278Z,101889.53
2022-08-30T21:46:59.095Z,101882.41
2022-08-30T21:49:29.346Z,101878.81
2022-08-30T21:52:00.214Z,101887.59
2022-08-30T21:54:31.617Z,101893.91
2022-08-30T21:57:05.251Z,101896.63
2022-08-30T21:59:35.952Z,101894.88
2022-08-30T22:02:07.926Z,101894.81
2022-08-30T22:04:38.885Z,101889.44
2022-08-30T22:07:09.722Z,101895.72
2022-08-30T22:09:40.131Z,101891.25
2022-08-30T22:12:10.602Z,101900.13
2022-08-30T22:14:41.262Z,101894.78
2022-08-30T22:17:13.027Z,101896.56
2022-08-30T22:19:43.192Z,101893.88
2022-08-30T22:22:14.422Z,101892.03
2022-08-30T22:24:44.562Z,101893.88
2022-08-30T22:27:15.211Z,101894.69
2022-08-30T22:29:45.402Z,101897.38
2022-08-30T22:32:17.021Z,101894.66
2022-08-30T22:34:47.802Z,101891.09
2022-08-30T22:37:18.071Z,101897.31
2022-08-30T22:39:51.592Z,101899.09
2022-08-30T22:42:22.082Z,101899.97
2022-08-30T22:44:53.253Z,101901.75
2022-08-30T22:47:24.971Z,101897.31
2022-08-30T22:49:56.082Z,101900.94
2022-08-30T22:52:26.221Z,101903.66
2022-08-30T22:55:01.031Z,101908.94
2022-08-30T22:57:31.582Z,101903.53
2022-08-30T23:00:03.132Z,101909.78
2022-08-30T23:02:35.087Z,101900.84
2022-08-30T23:05:06.912Z,101901.72
2022-08-30T23:07:37.221Z,101900.84
2022-08-30T23:10:09.377Z,101904.44
2022-08-30T23:12:39.747Z,101901.75
2022-08-30T23:15:13.666Z,101905.34
2022-08-30T23:17:45.155Z,101909.84
2022-08-30T23:20:15.765Z,101910.72
2022-08-30T23:22:46.178Z,101909.81
2022-08-30T23:25:41.442Z,101908.00
2022-08-30T23:28:32.544Z,101909.84
2022-08-30T23:31:28.960Z,101906.25
2022-08-30T23:34:18.087Z,101906.19
2022-08-30T23:37:06.223Z,101907.97
2022-08-30T23:39:53.697Z,101903.53
2022-08-30T23:42:41.108Z,101908.88
2022-08-30T23:45:29.313Z,101907.09
2022-08-30T23:48:16.844Z,101910.63
2022-08-30T23:51:05.428Z,101909.72
2022-08-30T23:53:52.867Z,101862.78
2022-08-30T23:56:40.457Z,101907.06
2022-08-30T23:59:27.967Z,101908.81
